sensor_id;sensor_type;location;lat;lon;timestamp;P1;durP1;ratioP1;P2;durP2;ratioP2
15595;SDS011;7898;48.658;9.068;2023-03-17T00:00:18;7.33;;;3.63;;
15595;SDS011;7898;48.658;9.068;2023-03-17T00:02:46;5.27;;;4.03;;
15595;SDS011;7898;48.658;9.068;2023-03-17T00:05:15;6.30;;;3.80;;
15595;SDS011;7898;48.658;9.068;2023-03-17T00:07:44;6.20;;;4.23;;
15595;SDS011;7898;48.658;9.068;2023-03-17T00:10:13;6.17;;;4.10;;
15595;SDS011;7898;48.658;9.068;2023-03-17T00:12:43;6.60;;;4.03;;
15595;SDS011;7898;48.658;9.068;2023-03-17T00:15:11;6.13;;;3.80;;
15595;SDS011;7898;48.658;9.068;2023-03-17T00:17:40;5.77;;;4.03;;
15595;SDS011;7898;48.658;9.068;2023-03-17T00:20:10;7.93;;;4.10;;
15595;SDS011;7898;48.658;9.068;2023-03-17T00:22:49;4.50;;;3.47;;
15595;SDS011;7898;48.658;9.068;2023-03-17T00:25:20;5.63;;;3.97;;
15595;SDS011;7898;48.658;9.068;2023-03-17T00:27:52;6.40;;;3.53;;
15595;SDS011;7898;48.658;9.068;2023-03-17T00:30:21;4.93;;;3.33;;
15595;SDS011;7898;48.658;9.068;2023-03-17T00:32:49;5.20;;;3.43;;
15595;SDS011;7898;48.658;9.068;2023-03-17T00:35:19;5.90;;;4.00;;
15595;SDS011;7898;48.658;9.068;2023-03-17T00:37:48;4.70;;;3.50;;
15595;SDS011;7898;48.658;9.068;2023-03-17T00:40:17;4.13;;;3.00;;
15595;SDS011;7898;48.658;9.068;2023-03-17T00:42:46;5.57;;;3.53;;
15595;SDS011;7898;48.658;9.068;2023-03-17T00:45:15;4.57;;;3.60;;
15595;SDS011;7898;48.658;9.068;2023-03-17T00:47:42;6.57;;;4.07;;
15595;SDS011;7898;48.658;9.068;2023-03-17T00:50:11;6.00;;;4.50;;
15595;SDS011;7898;48.658;9.068;2023-03-17T00:52:40;6.83;;;4.30;;
15595;SDS011;7898;48.658;9.068;2023-03-17T00:55:08;4.80;;;4.03;;
15595;SDS011;7898;48.658;9.068;2023-03-17T00:57:37;6.87;;;4.20;;
15595;SDS011;7898;48.658;9.068;2023-03-17T01:00:06;5.40;;;3.93;;
15595;SDS011;7898;48.658;9.068;2023-03-17T01:02:44;5.13;;;4.00;;
15595;SDS011;7898;48.658;9.068;2023-03-17T01:05:11;4.60;;;3.57;;
15595;SDS011;7898;48.658;9.068;2023-03-17T01:07:38;6.80;;;4.10;;
15595;SDS011;7898;48.658;9.068;2023-03-17T01:10:10;6.83;;;4.77;;
15595;SDS011;7898;48.658;9.068;2023-03-17T01:12:38;6.17;;;4.50;;
15595;SDS011;7898;48.658;9.068;2023-03-17T01:15:05;6.43;;;4.50;;
15595;SDS011;7898;48.658;9.068;2023-03-17T01:17:32;6.60;;;4.00;;
15595;SDS011;7898;48.658;9.068;2023-03-17T01:20:01;7.27;;;4.87;;
15595;SDS011;7898;48.658;9.068;2023-03-17T01:22:29;6.93;;;4.00;;
15595;SDS011;7898;48.658;9.068;2023-03-17T01:24:56;5.07;;;4.40;;
15595;SDS011;7898;48.658;9.068;2023-03-17T01:27:23;4.90;;;4.00;;
15595;SDS011;7898;48.658;9.068;2023-03-17T01:29:51;4.63;;;3.43;;
15595;SDS011;7898;48.658;9.068;2023-03-17T01:32:18;5.47;;;3.80;;
15595;SDS011;7898;48.658;9.068;2023-03-17T01:34:45;6.27;;;4.53;;
15595;SDS011;7898;48.658;9.068;2023-03-17T01:37:13;5.80;;;4.23;;
15595;SDS011;7898;48.658;9.068;2023-03-17T01:39:40;7.23;;;4.37;;
15595;SDS011;7898;48.658;9.068;2023-03-17T01:42:07;5.43;;;4.37;;
15595;SDS011;7898;48.658;9.068;2023-03-17T01:47:25;6.20;;;3.63;;
15595;SDS011;7898;48.658;9.068;2023-03-17T01:49:54;7.13;;;4.07;;
15595;SDS011;7898;48.658;9.068;2023-03-17T01:52:24;4.83;;;3.93;;
15595;SDS011;7898;48.658;9.068;2023-03-17T01:54:53;4.97;;;3.93;;
15595;SDS011;7898;48.658;9.068;2023-03-17T01:57:25;6.97;;;4.17;;
15595;SDS011;7898;48.658;9.068;2023-03-17T01:59:57;7.03;;;5.20;;
15595;SDS011;7898;48.658;9.068;2023-03-17T02:02:31;4.50;;;3.30;;
15595;SDS011;7898;48.658;9.068;2023-03-17T02:05:00;5.43;;;3.77;;
15595;SDS011;7898;48.658;9.068;2023-03-17T02:07:31;4.37;;;3.97;;
15595;SDS011;7898;48.658;9.068;2023-03-17T02:09:58;6.37;;;4.47;;
15595;SDS011;7898;48.658;9.068;2023-03-17T02:12:25;5.03;;;3.33;;
15595;SDS011;7898;48.658;9.068;2023-03-17T02:14:54;6.07;;;3.70;;
15595;SDS011;7898;48.658;9.068;2023-03-17T02:17:23;6.87;;;4.13;;
15595;SDS011;7898;48.658;9.068;2023-03-17T02:19:51;4.83;;;4.00;;
15595;SDS011;7898;48.658;9.068;2023-03-17T02:22:20;4.80;;;3.63;;
15595;SDS011;7898;48.658;9.068;2023-03-17T02:24:49;5.60;;;4.13;;
15595;SDS011;7898;48.658;9.068;2023-03-17T02:27:20;8.23;;;5.27;;
15595;SDS011;7898;48.658;9.068;2023-03-17T02:29:51;7.33;;;4.90;;
15595;SDS011;7898;48.658;9.068;2023-03-17T02:32:18;5.40;;;4.60;;
15595;SDS011;7898;48.658;9.068;2023-03-17T02:34:46;6.20;;;4.53;;
15595;SDS011;7898;48.658;9.068;2023-03-17T02:37:13;5.07;;;4.07;;
15595;SDS011;7898;48.658;9.068;2023-03-17T02:39:43;6.70;;;4.83;;
15595;SDS011;7898;48.658;9.068;2023-03-17T02:42:11;5.87;;;4.27;;
15595;SDS011;7898;48.658;9.068;2023-03-17T02:44:38;6.70;;;4.50;;
15595;SDS011;7898;48.658;9.068;2023-03-17T02:47:05;9.83;;;5.53;;
15595;SDS011;7898;48.658;9.068;2023-03-17T02:49:33;8.73;;;4.73;;
15595;SDS011;7898;48.658;9.068;2023-03-17T02:52:01;7.53;;;4.40;;
15595;SDS011;7898;48.658;9.068;2023-03-17T02:54:28;6.37;;;5.00;;
15595;SDS011;7898;48.658;9.068;2023-03-17T02:56:56;7.13;;;4.57;;
15595;SDS011;7898;48.658;9.068;2023-03-17T02:59:23;6.30;;;4.57;;
15595;SDS011;7898;48.658;9.068;2023-03-17T03:01:50;10.07;;;4.70;;
15595;SDS011;7898;48.658;9.068;2023-03-17T03:04:17;7.67;;;4.50;;
15595;SDS011;7898;48.658;9.068;2023-03-17T03:06:45;6.30;;;5.10;;
15595;SDS011;7898;48.658;9.068;2023-03-17T03:09:12;6.80;;;4.60;;
15595;SDS011;7898;48.658;9.068;2023-03-17T03:11:41;7.63;;;5.83;;
15595;SDS011;7898;48.658;9.068;2023-03-17T03:14:11;6.90;;;5.03;;
15595;SDS011;7898;48.658;9.068;2023-03-17T03:16:38;5.87;;;5.07;;
15595;SDS011;7898;48.658;9.068;2023-03-17T03:19:05;6.57;;;4.60;;
15595;SDS011;7898;48.658;9.068;2023-03-17T03:21:33;6.17;;;4.90;;
15595;SDS011;7898;48.658;9.068;2023-03-17T03:24:00;7.10;;;5.10;;
15595;SDS011;7898;48.658;9.068;2023-03-17T03:26:28;7.23;;;4.97;;
15595;SDS011;7898;48.658;9.068;2023-03-17T03:28:55;7.53;;;4.70;;
15595;SDS011;7898;48.658;9.068;2023-03-17T03:31:25;7.13;;;4.83;;
15595;SDS011;7898;48.658;9.068;2023-03-17T03:33:52;6.37;;;4.37;;
15595;SDS011;7898;48.658;9.068;2023-03-17T03:36:19;7.07;;;4.53;;
15595;SDS011;7898;48.658;9.068;2023-03-17T03:38:47;7.73;;;5.27;;
15595;SDS011;7898;48.658;9.068;2023-03-17T03:41:14;6.50;;;4.80;;
15595;SDS011;7898;48.658;9.068;2023-03-17T03:43:41;7.17;;;4.33;;
15595;SDS011;7898;48.658;9.068;2023-03-17T03:46:08;6.00;;;4.60;;
15595;SDS011;7898;48.658;9.068;2023-03-17T03:48:36;7.13;;;4.83;;
15595;SDS011;7898;48.658;9.068;2023-03-17T03:51:03;6.70;;;4.10;;
15595;SDS011;7898;48.658;9.068;2023-03-17T03:53:30;7.03;;;4.70;;
15595;SDS011;7898;48.658;9.068;2023-03-17T03:55:57;5.97;;;4.27;;
15595;SDS011;7898;48.658;9.068;2023-03-17T03:58:24;8.23;;;5.30;;
15595;SDS011;7898;48.658;9.068;2023-03-17T04:00:51;5.40;;;4.60;;
15595;SDS011;7898;48.658;9.068;2023-03-17T04:03:18;4.83;;;3.97;;
15595;SDS011;7898;48.658;9.068;2023-03-17T04:05:46;6.43;;;4.47;;
15595;SDS011;7898;48.658;9.068;2023-03-17T04:08:13;5.23;;;4.03;;
15595;SDS011;7898;48.658;9.068;2023-03-17T04:10:40;5.67;;;4.20;;
15595;SDS011;7898;48.658;9.068;2023-03-17T04:13:07;8.27;;;5.20;;
15595;SDS011;7898;48.658;9.068;2023-03-17T04:15:34;5.83;;;4.73;;
15595;SDS011;7898;48.658;9.068;2023-03-17T04:18:01;4.87;;;3.80;;
15595;SDS011;7898;48.658;9.068;2023-03-17T04:20:29;6.90;;;4.60;;
15595;SDS011;7898;48.658;9.068;2023-03-17T04:22:57;7.20;;;4.90;;
15595;SDS011;7898;48.658;9.068;2023-03-17T04:25:24;5.77;;;4.33;;
15595;SDS011;7898;48.658;9.068;2023-03-17T04:27:51;6.10;;;4.10;;
15595;SDS011;7898;48.658;9.068;2023-03-17T04:30:18;7.67;;;4.33;;
15595;SDS011;7898;48.658;9.068;2023-03-17T04:32:45;7.27;;;4.63;;
15595;SDS011;7898;48.658;9.068;2023-03-17T04:35:13;5.93;;;4.20;;
15595;SDS011;7898;48.658;9.068;2023-03-17T04:37:41;6.97;;;5.17;;
15595;SDS011;7898;48.658;9.068;2023-03-17T04:40:11;7.00;;;4.80;;
15595;SDS011;7898;48.658;9.068;2023-03-17T04:42:39;8.47;;;4.70;;
15595;SDS011;7898;48.658;9.068;2023-03-17T04:45:07;10.17;;;4.67;;
15595;SDS011;7898;48.658;9.068;2023-03-17T04:47:36;8.03;;;4.50;;
15595;SDS011;7898;48.658;9.068;2023-03-17T04:50:04;5.87;;;4.50;;
15595;SDS011;7898;48.658;9.068;2023-03-17T04:52:32;10.47;;;5.37;;
15595;SDS011;7898;48.658;9.068;2023-03-17T04:54:59;5.27;;;4.60;;
15595;SDS011;7898;48.658;9.068;2023-03-17T04:57:27;8.10;;;5.10;;
15595;SDS011;7898;48.658;9.068;2023-03-17T04:59:54;6.67;;;4.73;;
15595;SDS011;7898;48.658;9.068;2023-03-17T05:02:22;9.03;;;4.87;;
15595;SDS011;7898;48.658;9.068;2023-03-17T05:04:49;8.43;;;4.70;;
15595;SDS011;7898;48.658;9.068;2023-03-17T05:07:16;6.33;;;4.53;;
15595;SDS011;7898;48.658;9.068;2023-03-17T05:09:42;7.20;;;5.10;;
15595;SDS011;7898;48.658;9.068;2023-03-17T05:12:11;6.60;;;4.70;;
15595;SDS011;7898;48.658;9.068;2023-03-17T05:14:40;6.43;;;4.83;;
15595;SDS011;7898;48.658;9.068;2023-03-17T05:17:07;6.17;;;4.60;;
15595;SDS011;7898;48.658;9.068;2023-03-17T05:19:34;5.77;;;4.40;;
15595;SDS011;7898;48.658;9.068;2023-03-17T05:22:01;7.00;;;5.27;;
15595;SDS011;7898;48.658;9.068;2023-03-17T05:24:28;7.17;;;5.80;;
15595;SDS011;7898;48.658;9.068;2023-03-17T05:26:55;11.70;;;7.53;;
15595;SDS011;7898;48.658;9.068;2023-03-17T05:29:22;8.07;;;5.90;;
15595;SDS011;7898;48.658;9.068;2023-03-17T05:31:50;9.17;;;5.90;;
15595;SDS011;7898;48.658;9.068;2023-03-17T05:34:18;7.20;;;5.57;;
15595;SDS011;7898;48.658;9.068;2023-03-17T05:36:44;8.50;;;5.93;;
15595;SDS011;7898;48.658;9.068;2023-03-17T05:39:11;9.77;;;6.33;;
15595;SDS011;7898;48.658;9.068;2023-03-17T05:41:38;10.27;;;6.17;;
15595;SDS011;7898;48.658;9.068;2023-03-17T05:44:05;7.27;;;5.73;;
15595;SDS011;7898;48.658;9.068;2023-03-17T05:46:32;11.10;;;5.63;;
15595;SDS011;7898;48.658;9.068;2023-03-17T05:49:00;10.57;;;6.37;;
15595;SDS011;7898;48.658;9.068;2023-03-17T05:51:27;8.60;;;5.47;;
15595;SDS011;7898;48.658;9.068;2023-03-17T05:53:54;8.13;;;5.73;;
15595;SDS011;7898;48.658;9.068;2023-03-17T05:56:21;10.37;;;5.70;;
15595;SDS011;7898;48.658;9.068;2023-03-17T05:58:48;9.20;;;5.73;;
15595;SDS011;7898;48.658;9.068;2023-03-17T06:01:15;9.93;;;6.13;;
15595;SDS011;7898;48.658;9.068;2023-03-17T06:03:42;7.87;;;6.03;;
15595;SDS011;7898;48.658;9.068;2023-03-17T06:06:10;7.50;;;5.90;;
15595;SDS011;7898;48.658;9.068;2023-03-17T06:08:37;9.53;;;5.73;;
15595;SDS011;7898;48.658;9.068;2023-03-17T06:11:04;8.77;;;6.37;;
15595;SDS011;7898;48.658;9.068;2023-03-17T06:13:31;8.97;;;6.57;;
15595;SDS011;7898;48.658;9.068;2023-03-17T06:15:58;6.53;;;5.87;;
15595;SDS011;7898;48.658;9.068;2023-03-17T06:18:25;7.53;;;5.13;;
15595;SDS011;7898;48.658;9.068;2023-03-17T06:20:51;8.90;;;4.90;;
15595;SDS011;7898;48.658;9.068;2023-03-17T06:23:20;5.97;;;4.17;;
15595;SDS011;7898;48.658;9.068;2023-03-17T06:25:47;7.20;;;4.83;;
15595;SDS011;7898;48.658;9.068;2023-03-17T06:28:14;5.53;;;4.97;;
15595;SDS011;7898;48.658;9.068;2023-03-17T06:30:41;9.33;;;5.80;;
15595;SDS011;7898;48.658;9.068;2023-03-17T06:33:08;7.57;;;5.07;;
15595;SDS011;7898;48.658;9.068;2023-03-17T06:35:35;6.70;;;5.40;;
15595;SDS011;7898;48.658;9.068;2023-03-17T06:38:02;6.47;;;4.90;;
15595;SDS011;7898;48.658;9.068;2023-03-17T06:40:30;6.27;;;4.67;;
15595;SDS011;7898;48.658;9.068;2023-03-17T06:42:58;6.70;;;5.07;;
15595;SDS011;7898;48.658;9.068;2023-03-17T06:45:25;7.17;;;5.07;;
15595;SDS011;7898;48.658;9.068;2023-03-17T06:47:53;5.33;;;4.63;;
15595;SDS011;7898;48.658;9.068;2023-03-17T06:50:20;4.93;;;4.43;;
15595;SDS011;7898;48.658;9.068;2023-03-17T06:52:47;8.73;;;6.17;;
15595;SDS011;7898;48.658;9.068;2023-03-17T06:55:14;7.30;;;5.70;;
15595;SDS011;7898;48.658;9.068;2023-03-17T06:57:42;6.33;;;5.50;;
15595;SDS011;7898;48.658;9.068;2023-03-17T07:00:10;7.23;;;5.87;;
15595;SDS011;7898;48.658;9.068;2023-03-17T07:02:38;6.10;;;5.47;;
15595;SDS011;7898;48.658;9.068;2023-03-17T07:05:05;5.50;;;4.75;;
15595;SDS011;7898;48.658;9.068;2023-03-17T07:07:33;6.80;;;5.47;;
15595;SDS011;7898;48.658;9.068;2023-03-17T07:10:00;5.47;;;4.90;;
15595;SDS011;7898;48.658;9.068;2023-03-17T07:12:28;7.43;;;5.35;;
15595;SDS011;7898;48.658;9.068;2023-03-17T07:14:56;7.53;;;5.47;;
15595;SDS011;7898;48.658;9.068;2023-03-17T07:17:24;6.40;;;5.53;;
15595;SDS011;7898;48.658;9.068;2023-03-17T07:19:51;6.78;;;5.53;;
15595;SDS011;7898;48.658;9.068;2023-03-17T07:22:18;7.82;;;5.60;;
15595;SDS011;7898;48.658;9.068;2023-03-17T07:24:45;8.52;;;5.65;;
15595;SDS011;7898;48.658;9.068;2023-03-17T07:27:13;7.53;;;5.55;;
15595;SDS011;7898;48.658;9.068;2023-03-17T07:29:40;6.63;;;5.28;;
15595;SDS011;7898;48.658;9.068;2023-03-17T07:32:08;7.47;;;6.00;;
15595;SDS011;7898;48.658;9.068;2023-03-17T07:34:35;6.88;;;5.35;;
15595;SDS011;7898;48.658;9.068;2023-03-17T07:37:02;11.27;;;5.97;;
15595;SDS011;7898;48.658;9.068;2023-03-17T07:39:30;6.85;;;5.45;;
15595;SDS011;7898;48.658;9.068;2023-03-17T07:41:57;7.38;;;5.00;;
15595;SDS011;7898;48.658;9.068;2023-03-17T07:44:24;6.53;;;5.40;;
15595;SDS011;7898;48.658;9.068;2023-03-17T07:46:51;8.38;;;5.55;;
15595;SDS011;7898;48.658;9.068;2023-03-17T07:49:20;5.97;;;4.50;;
15595;SDS011;7898;48.658;9.068;2023-03-17T07:51:47;6.05;;;4.68;;
15595;SDS011;7898;48.658;9.068;2023-03-17T07:54:14;4.95;;;4.07;;
15595;SDS011;7898;48.658;9.068;2023-03-17T07:56:41;5.30;;;3.97;;
15595;SDS011;7898;48.658;9.068;2023-03-17T07:59:08;6.88;;;4.03;;
15595;SDS011;7898;48.658;9.068;2023-03-17T08:01:35;4.75;;;3.72;;
15595;SDS011;7898;48.658;9.068;2023-03-17T08:04:02;6.57;;;3.95;;
15595;SDS011;7898;48.658;9.068;2023-03-17T08:06:31;5.32;;;3.65;;
15595;SDS011;7898;48.658;9.068;2023-03-17T08:08:58;5.50;;;4.00;;
15595;SDS011;7898;48.658;9.068;2023-03-17T08:11:25;6.05;;;3.83;;
15595;SDS011;7898;48.658;9.068;2023-03-17T08:13:52;4.13;;;3.38;;
15595;SDS011;7898;48.658;9.068;2023-03-17T08:16:19;5.10;;;3.80;;
15595;SDS011;7898;48.658;9.068;2023-03-17T08:18:46;5.95;;;3.70;;
15595;SDS011;7898;48.658;9.068;2023-03-17T08:21:13;4.47;;;4.07;;
15595;SDS011;7898;48.658;9.068;2023-03-17T08:23:42;5.32;;;3.78;;
15595;SDS011;7898;48.658;9.068;2023-03-17T08:26:09;6.32;;;4.25;;
15595;SDS011;7898;48.658;9.068;2023-03-17T08:28:38;5.78;;;4.22;;
15595;SDS011;7898;48.658;9.068;2023-03-17T08:31:05;5.50;;;4.72;;
15595;SDS011;7898;48.658;9.068;2023-03-17T08:33:33;7.10;;;4.05;;
15595;SDS011;7898;48.658;9.068;2023-03-17T08:36:03;5.55;;;4.70;;
15595;SDS011;7898;48.658;9.068;2023-03-17T08:38:31;5.38;;;3.10;;
15595;SDS011;7898;48.658;9.068;2023-03-17T08:41:00;4.20;;;3.10;;
15595;SDS011;7898;48.658;9.068;2023-03-17T08:43:27;6.13;;;2.97;;
15595;SDS011;7898;48.658;9.068;2023-03-17T08:45:58;3.53;;;2.95;;
15595;SDS011;7898;48.658;9.068;2023-03-17T08:48:27;3.88;;;3.42;;
15595;SDS011;7898;48.658;9.068;2023-03-17T08:50:54;4.50;;;3.08;;
15595;SDS011;7898;48.658;9.068;2023-03-17T08:53:22;4.50;;;2.78;;
15595;SDS011;7898;48.658;9.068;2023-03-17T08:55:50;3.92;;;2.60;;
15595;SDS011;7898;48.658;9.068;2023-03-17T08:58:18;4.28;;;2.75;;
15595;SDS011;7898;48.658;9.068;2023-03-17T09:00:45;4.43;;;2.90;;
15595;SDS011;7898;48.658;9.068;2023-03-17T09:03:14;5.03;;;2.67;;
15595;SDS011;7898;48.658;9.068;2023-03-17T09:05:41;3.80;;;2.40;;
15595;SDS011;7898;48.658;9.068;2023-03-17T09:08:09;3.03;;;2.75;;
15595;SDS011;7898;48.658;9.068;2023-03-17T09:10:37;3.50;;;3.00;;
15595;SDS011;7898;48.658;9.068;2023-03-17T09:13:04;3.63;;;2.90;;
15595;SDS011;7898;48.658;9.068;2023-03-17T09:15:34;4.38;;;2.33;;
15595;SDS011;7898;48.658;9.068;2023-03-17T09:18:01;4.38;;;2.47;;
15595;SDS011;7898;48.658;9.068;2023-03-17T09:20:29;3.40;;;3.10;;
15595;SDS011;7898;48.658;9.068;2023-03-17T09:22:57;5.50;;;2.58;;
15595;SDS011;7898;48.658;9.068;2023-03-17T09:25:24;3.22;;;2.17;;
15595;SDS011;7898;48.658;9.068;2023-03-17T09:27:51;3.20;;;2.10;;
15595;SDS011;7898;48.658;9.068;2023-03-17T09:30:18;3.20;;;2.08;;
15595;SDS011;7898;48.658;9.068;2023-03-17T09:32:47;3.42;;;2.63;;
15595;SDS011;7898;48.658;9.068;2023-03-17T09:35:14;2.63;;;2.13;;
15595;SDS011;7898;48.658;9.068;2023-03-17T09:37:41;2.55;;;2.00;;
15595;SDS011;7898;48.658;9.068;2023-03-17T09:40:09;3.30;;;2.42;;
15595;SDS011;7898;48.658;9.068;2023-03-17T09:42:44;3.47;;;2.47;;
15595;SDS011;7898;48.658;9.068;2023-03-17T09:45:27;2.63;;;2.00;;
15595;SDS011;7898;48.658;9.068;2023-03-17T09:48:05;4.97;;;1.85;;
15595;SDS011;7898;48.658;9.068;2023-03-17T09:50:51;2.17;;;1.92;;
15595;SDS011;7898;48.658;9.068;2023-03-17T09:53:22;4.28;;;2.13;;
15595;SDS011;7898;48.658;9.068;2023-03-17T09:55:54;4.35;;;2.08;;
15595;SDS011;7898;48.658;9.068;2023-03-17T09:58:25;3.30;;;2.05;;
15595;SDS011;7898;48.658;9.068;2023-03-17T10:00:55;2.53;;;1.88;;
15595;SDS011;7898;48.658;9.068;2023-03-17T10:03:24;2.55;;;2.03;;
15595;SDS011;7898;48.658;9.068;2023-03-17T10:05:52;2.40;;;1.70;;
15595;SDS011;7898;48.658;9.068;2023-03-17T10:08:25;5.35;;;1.63;;
15595;SDS011;7898;48.658;9.068;2023-03-17T10:10:56;2.35;;;2.00;;
15595;SDS011;7898;48.658;9.068;2023-03-17T10:13:33;3.47;;;1.83;;
15595;SDS011;7898;48.658;9.068;2023-03-17T10:16:11;2.97;;;1.90;;
15595;SDS011;7898;48.658;9.068;2023-03-17T10:18:42;5.03;;;1.70;;
15595;SDS011;7898;48.658;9.068;2023-03-17T10:21:16;3.70;;;1.65;;
15595;SDS011;7898;48.658;9.068;2023-03-17T10:23:48;4.72;;;1.75;;
15595;SDS011;7898;48.658;9.068;2023-03-17T10:26:17;4.50;;;1.60;;
15595;SDS011;7898;48.658;9.068;2023-03-17T10:28:51;2.45;;;1.60;;
15595;SDS011;7898;48.658;9.068;2023-03-17T10:31:19;2.40;;;1.55;;
15595;SDS011;7898;48.658;9.068;2023-03-17T10:33:54;1.33;;;1.10;;
15595;SDS011;7898;48.658;9.068;2023-03-17T10:36:34;3.20;;;1.35;;
15595;SDS011;7898;48.658;9.068;2023-03-17T10:39:03;1.25;;;1.15;;
15595;SDS011;7898;48.658;9.068;2023-03-17T10:41:32;1.77;;;1.20;;
15595;SDS011;7898;48.658;9.068;2023-03-17T10:44:06;1.30;;;1.17;;
15595;SDS011;7898;48.658;9.068;2023-03-17T10:46:35;2.00;;;1.20;;
15595;SDS011;7898;48.658;9.068;2023-03-17T10:49:07;1.30;;;0.90;;
15595;SDS011;7898;48.658;9.068;2023-03-17T10:51:43;1.38;;;0.93;;
15595;SDS011;7898;48.658;9.068;2023-03-17T10:54:15;4.15;;;1.40;;
15595;SDS011;7898;48.658;9.068;2023-03-17T10:56:44;2.35;;;0.90;;
15595;SDS011;7898;48.658;9.068;2023-03-17T10:59:16;3.67;;;1.20;;
15595;SDS011;7898;48.658;9.068;2023-03-17T11:01:45;2.85;;;1.08;;
15595;SDS011;7898;48.658;9.068;2023-03-17T11:04:26;3.53;;;1.00;;
15595;SDS011;7898;48.658;9.068;2023-03-17T11:06:55;2.95;;;1.00;;
15595;SDS011;7898;48.658;9.068;2023-03-17T11:09:24;1.52;;;1.13;;
15595;SDS011;7898;48.658;9.068;2023-03-17T11:12:00;0.98;;;0.88;;
15595;SDS011;7898;48.658;9.068;2023-03-17T11:14:29;3.08;;;1.17;;
15595;SDS011;7898;48.658;9.068;2023-03-17T11:16:56;2.10;;;1.13;;
15595;SDS011;7898;48.658;9.068;2023-03-17T11:19:28;5.05;;;1.35;;
15595;SDS011;7898;48.658;9.068;2023-03-17T11:22:03;3.90;;;0.90;;
15595;SDS011;7898;48.658;9.068;2023-03-17T11:24:37;3.28;;;1.35;;
15595;SDS011;7898;48.658;9.068;2023-03-17T11:27:15;1.15;;;0.80;;
15595;SDS011;7898;48.658;9.068;2023-03-17T11:29:54;2.22;;;0.95;;
15595;SDS011;7898;48.658;9.068;2023-03-17T11:32:50;1.27;;;1.17;;
15595;SDS011;7898;48.658;9.068;2023-03-17T11:35:27;3.15;;;1.20;;
15595;SDS011;7898;48.658;9.068;2023-03-17T11:38:06;2.78;;;0.98;;
15595;SDS011;7898;48.658;9.068;2023-03-17T11:40:46;2.53;;;1.00;;
15595;SDS011;7898;48.658;9.068;2023-03-17T11:43:35;0.93;;;0.65;;
15595;SDS011;7898;48.658;9.068;2023-03-17T11:46:14;1.23;;;1.00;;
15595;SDS011;7898;48.658;9.068;2023-03-17T11:48:49;1.02;;;0.90;;
15595;SDS011;7898;48.658;9.068;2023-03-17T11:51:26;1.55;;;0.80;;
15595;SDS011;7898;48.658;9.068;2023-03-17T11:53:58;2.00;;;0.93;;
15595;SDS011;7898;48.658;9.068;2023-03-17T11:56:36;1.00;;;0.90;;
15595;SDS011;7898;48.658;9.068;2023-03-17T11:59:11;1.33;;;0.88;;
15595;SDS011;7898;48.658;9.068;2023-03-17T12:01:44;2.42;;;1.02;;
15595;SDS011;7898;48.658;9.068;2023-03-17T12:04:19;0.88;;;0.80;;
15595;SDS011;7898;48.658;9.068;2023-03-17T12:06:57;1.02;;;0.73;;
15595;SDS011;7898;48.658;9.068;2023-03-17T12:09:29;2.40;;;0.70;;
15595;SDS011;7898;48.658;9.068;2023-03-17T12:12:00;2.33;;;0.73;;
15595;SDS011;7898;48.658;9.068;2023-03-17T12:14:30;1.20;;;0.60;;
15595;SDS011;7898;48.658;9.068;2023-03-17T12:17:01;1.33;;;0.95;;
15595;SDS011;7898;48.658;9.068;2023-03-17T12:19:35;1.20;;;0.80;;
15595;SDS011;7898;48.658;9.068;2023-03-17T12:22:08;2.63;;;1.00;;
15595;SDS011;7898;48.658;9.068;2023-03-17T12:24:46;1.70;;;0.95;;
15595;SDS011;7898;48.658;9.068;2023-03-17T12:27:18;3.22;;;1.13;;
15595;SDS011;7898;48.658;9.068;2023-03-17T12:29:50;1.65;;;0.93;;
15595;SDS011;7898;48.658;9.068;2023-03-17T12:32:23;2.00;;;0.90;;
15595;SDS011;7898;48.658;9.068;2023-03-17T12:34:54;1.40;;;0.93;;
15595;SDS011;7898;48.658;9.068;2023-03-17T12:37:24;1.33;;;0.90;;
15595;SDS011;7898;48.658;9.068;2023-03-17T12:39:53;2.70;;;1.27;;
15595;SDS011;7898;48.658;9.068;2023-03-17T12:45:17;1.88;;;1.30;;
15595;SDS011;7898;48.658;9.068;2023-03-17T12:48:06;2.72;;;1.20;;
15595;SDS011;7898;48.658;9.068;2023-03-17T12:51:13;4.32;;;0.90;;
15595;SDS011;7898;48.658;9.068;2023-03-17T12:54:12;1.13;;;0.85;;
15595;SDS011;7898;48.658;9.068;2023-03-17T12:56:44;1.40;;;1.02;;
15595;SDS011;7898;48.658;9.068;2023-03-17T12:59:14;0.95;;;0.85;;
15595;SDS011;7898;48.658;9.068;2023-03-17T13:01:43;1.23;;;1.00;;
15595;SDS011;7898;48.658;9.068;2023-03-17T13:04:20;1.25;;;1.10;;
15595;SDS011;7898;48.658;9.068;2023-03-17T13:06:53;1.50;;;0.88;;
15595;SDS011;7898;48.658;9.068;2023-03-17T13:09:28;0.95;;;0.82;;
15595;SDS011;7898;48.658;9.068;2023-03-17T13:15:22;2.50;;;1.00;;
15595;SDS011;7898;48.658;9.068;2023-03-17T13:18:19;2.70;;;0.88;;
15595;SDS011;7898;48.658;9.068;2023-03-17T13:21:10;1.10;;;0.90;;
15595;SDS011;7898;48.658;9.068;2023-03-17T13:23:40;0.93;;;0.65;;
15595;SDS011;7898;48.658;9.068;2023-03-17T13:26:12;1.63;;;0.90;;
15595;SDS011;7898;48.658;9.068;2023-03-17T13:28:42;3.30;;;1.20;;
15595;SDS011;7898;48.658;9.068;2023-03-17T13:34:13;1.52;;;1.10;;
15595;SDS011;7898;48.658;9.068;2023-03-17T13:36:53;1.92;;;1.05;;
15595;SDS011;7898;48.658;9.068;2023-03-17T13:39:43;2.03;;;1.63;;
15595;SDS011;7898;48.658;9.068;2023-03-17T13:42:43;1.77;;;1.30;;
15595;SDS011;7898;48.658;9.068;2023-03-17T13:45:33;2.60;;;1.30;;
15595;SDS011;7898;48.658;9.068;2023-03-17T13:48:23;2.72;;;1.10;;
15595;SDS011;7898;48.658;9.068;2023-03-17T13:50:56;1.42;;;1.10;;
15595;SDS011;7898;48.658;9.068;2023-03-17T13:53:27;2.38;;;1.50;;
15595;SDS011;7898;48.658;9.068;2023-03-17T13:56:07;2.03;;;1.30;;
15595;SDS011;7898;48.658;9.068;2023-03-17T13:58:51;2.20;;;1.25;;
15595;SDS011;7898;48.658;9.068;2023-03-17T14:01:22;1.55;;;1.23;;
15595;SDS011;7898;48.658;9.068;2023-03-17T14:03:50;2.13;;;1.30;;
15595;SDS011;7898;48.658;9.068;2023-03-17T14:06:21;3.67;;;1.35;;
15595;SDS011;7898;48.658;9.068;2023-03-17T14:08:52;4.25;;;1.48;;
15595;SDS011;7898;48.658;9.068;2023-03-17T14:11:24;3.85;;;1.20;;
15595;SDS011;7898;48.658;9.068;2023-03-17T14:14:13;2.10;;;1.55;;
15595;SDS011;7898;48.658;9.068;2023-03-17T14:16:46;1.90;;;1.23;;
15595;SDS011;7898;48.658;9.068;2023-03-17T14:19:20;1.50;;;1.23;;
15595;SDS011;7898;48.658;9.068;2023-03-17T14:21:49;1.50;;;1.40;;
15595;SDS011;7898;48.658;9.068;2023-03-17T14:24:17;3.42;;;1.50;;
15595;SDS011;7898;48.658;9.068;2023-03-17T14:26:49;2.17;;;1.33;;
15595;SDS011;7898;48.658;9.068;2023-03-17T14:29:20;2.38;;;1.45;;
15595;SDS011;7898;48.658;9.068;2023-03-17T14:31:58;1.63;;;1.27;;
15595;SDS011;7898;48.658;9.068;2023-03-17T14:34:28;2.05;;;1.38;;
15595;SDS011;7898;48.658;9.068;2023-03-17T14:36:58;1.65;;;1.20;;
15595;SDS011;7898;48.658;9.068;2023-03-17T14:39:26;2.88;;;1.50;;
15595;SDS011;7898;48.658;9.068;2023-03-17T14:41:57;1.98;;;1.20;;
15595;SDS011;7898;48.658;9.068;2023-03-17T14:44:35;2.35;;;1.10;;
15595;SDS011;7898;48.658;9.068;2023-03-17T14:47:04;1.67;;;1.02;;
15595;SDS011;7898;48.658;9.068;2023-03-17T14:49:37;2.47;;;1.17;;
15595;SDS011;7898;48.658;9.068;2023-03-17T14:52:04;2.70;;;1.13;;
15595;SDS011;7898;48.658;9.068;2023-03-17T14:54:32;2.75;;;1.65;;
15595;SDS011;7898;48.658;9.068;2023-03-17T14:57:01;1.65;;;1.20;;
15595;SDS011;7898;48.658;9.068;2023-03-17T14:59:33;3.90;;;1.33;;
15595;SDS011;7898;48.658;9.068;2023-03-17T15:02:06;1.83;;;1.25;;
15595;SDS011;7898;48.658;9.068;2023-03-17T15:04:50;1.92;;;1.25;;
15595;SDS011;7898;48.658;9.068;2023-03-17T15:07:26;2.90;;;1.75;;
15595;SDS011;7898;48.658;9.068;2023-03-17T15:09:56;2.17;;;1.30;;
15595;SDS011;7898;48.658;9.068;2023-03-17T15:12:26;2.08;;;1.45;;
15595;SDS011;7898;48.658;9.068;2023-03-17T15:14:55;1.98;;;1.23;;
15595;SDS011;7898;48.658;9.068;2023-03-17T15:17:27;2.45;;;1.42;;
15595;SDS011;7898;48.658;9.068;2023-03-17T15:19:59;1.50;;;1.35;;
15595;SDS011;7898;48.658;9.068;2023-03-17T15:22:30;1.63;;;1.40;;
15595;SDS011;7898;48.658;9.068;2023-03-17T15:25:16;2.17;;;1.58;;
15595;SDS011;7898;48.658;9.068;2023-03-17T15:27:45;1.80;;;1.52;;
15595;SDS011;7898;48.658;9.068;2023-03-17T15:30:13;1.35;;;1.23;;